createdAt,value
2019-05-30T00:00:11.397Z,14.58
2019-05-30T00:01:00.236Z,14.60
2019-05-30T00:02:00.481Z,14.62
2019-05-30T00:03:00.268Z,14.64
2019-05-30T00:04:00.356Z,14.66
2019-05-30T00:05:00.296Z,14.68
2019-05-30T00:06:00.449Z,14.69
2019-05-30T00:07:00.432Z,14.71
2019-05-30T00:08:00.258Z,14.73
2019-05-30T00:09:00.427Z,14.74
2019-05-30T00:09:59.131Z,14.76
2019-05-30T00:10:59.118Z,14.77
2019-05-30T00:11:59.118Z,14.78
2019-05-30T00:12:59.096Z,14.80
2019-05-30T00:13:59.084Z,14.81
2019-05-30T00:14:59.074Z,14.82
2019-05-30T00:15:59.071Z,14.83
2019-05-30T00:16:59.052Z,14.84
2019-05-30T00:17:59.052Z,14.84
2019-05-30T00:18:59.030Z,14.85
2019-05-30T00:19:59.019Z,14.86
2019-05-30T00:20:59.006Z,14.85
2019-05-30T00:21:58.998Z,14.87
2019-05-30T00:22:58.990Z,14.88
2019-05-30T00:23:59.951Z,14.89
2019-05-30T00:25:00.029Z,14.87
2019-05-30T00:25:59.202Z,14.89
2019-05-30T00:27:00.185Z,14.89
2019-05-30T00:27:59.225Z,14.90
2019-05-30T00:29:00.217Z,14.92
2019-05-30T00:29:59.298Z,14.92
2019-05-30T00:30:58.897Z,14.92
2019-05-30T00:31:59.395Z,14.93
2019-05-30T00:32:58.989Z,14.93
2019-05-30T00:33:59.557Z,14.95
2019-05-30T00:34:59.664Z,14.95
2019-05-30T00:35:59.838Z,14.96
2019-05-30T00:36:59.835Z,14.97
2019-05-30T00:37:59.729Z,14.96
2019-05-30T00:38:59.767Z,14.97
2019-05-30T00:39:59.886Z,14.97
2019-05-30T00:40:59.918Z,14.98
2019-05-30T00:41:59.938Z,14.98
2019-05-30T00:42:59.938Z,14.99
2019-05-30T00:43:59.883Z,14.98
2019-05-30T00:44:59.915Z,15.00
2019-05-30T00:45:59.971Z,14.98
2019-05-30T00:46:58.722Z,14.97
2019-05-30T00:47:58.721Z,14.99
2019-05-30T00:48:58.699Z,14.98
2019-05-30T00:49:58.687Z,14.97
2019-05-30T00:50:58.677Z,14.98
2019-05-30T00:51:58.666Z,14.95
2019-05-30T00:52:58.853Z,14.96
2019-05-30T00:53:58.655Z,14.93
2019-05-30T00:54:58.633Z,14.93
2019-05-30T00:55:58.642Z,14.90
2019-05-30T00:56:58.663Z,14.91
2019-05-30T00:57:58.602Z,14.89
2019-05-30T00:58:58.765Z,14.88
2019-05-30T00:59:58.796Z,14.87
2019-05-30T01:00:59.008Z,14.86
2019-05-30T01:01:58.643Z,14.84
2019-05-30T01:02:59.921Z,14.83
2019-05-30T01:03:58.728Z,14.83
2019-05-30T01:04:58.856Z,14.82
2019-05-30T01:05:58.776Z,14.81
2019-05-30T01:06:58.947Z,14.80
2019-05-30T01:07:58.751Z,14.78
2019-05-30T01:08:59.080Z,14.78
2019-05-30T01:09:59.133Z,14.77
2019-05-30T01:10:58.968Z,14.76
2019-05-30T01:11:59.132Z,14.77
2019-05-30T01:12:59.761Z,14.78
2019-05-30T01:13:58.988Z,14.81
2019-05-30T01:14:58.915Z,14.80
2019-05-30T01:15:58.929Z,14.81
2019-05-30T01:16:59.020Z,14.83
2019-05-30T01:17:59.044Z,14.84
2019-05-30T01:18:59.026Z,14.85
2019-05-30T01:19:59.091Z,14.86
2019-05-30T01:20:59.108Z,14.89
2019-05-30T01:21:59.207Z,14.90
2019-05-30T01:22:59.163Z,14.91
2019-05-30T01:23:59.283Z,14.92
2019-05-30T01:24:59.157Z,14.92
2019-05-30T01:25:59.343Z,14.93
2019-05-30T01:26:59.197Z,14.94
2019-05-30T01:27:59.495Z,14.94
2019-05-30T01:28:59.352Z,14.94
2019-05-30T01:29:59.322Z,14.96
2019-05-30T01:31:03.164Z,14.97
2019-05-30T01:31:59.432Z,14.98
2019-05-30T01:32:59.558Z,14.98
2019-05-30T01:33:59.399Z,15.00
2019-05-30T01:34:59.577Z,14.98
2019-05-30T01:35:59.423Z,14.99
2019-05-30T01:36:58.176Z,15.00
2019-05-30T01:37:58.163Z,15.01
2019-05-30T01:38:58.153Z,15.02
2019-05-30T01:39:58.143Z,15.02
2019-05-30T01:40:58.131Z,15.03
2019-05-30T01:41:58.131Z,15.05
2019-05-30T01:42:58.109Z,15.03
2019-05-30T01:43:58.098Z,15.05
2019-05-30T01:44:58.148Z,15.06
2019-05-30T01:45:58.101Z,15.08
2019-05-30T01:46:58.234Z,15.08
2019-05-30T01:47:58.236Z,15.09
2019-05-30T01:48:58.197Z,15.09
2019-05-30T01:49:58.314Z,15.09
2019-05-30T01:50:58.308Z,15.07
2019-05-30T01:51:58.378Z,15.06
2019-05-30T01:52:58.473Z,15.05
2019-05-30T01:53:58.374Z,15.04
2019-05-30T01:54:58.542Z,15.02
2019-05-30T01:55:58.556Z,15.02
2019-05-30T01:56:58.447Z,14.99
2019-05-30T01:57:58.747Z,14.99
2019-05-30T01:58:58.638Z,14.98
2019-05-30T01:59:58.694Z,14.97
2019-05-30T02:00:58.751Z,14.95
2019-05-30T02:01:58.876Z,14.94
2019-05-30T02:02:58.864Z,14.94
2019-05-30T02:03:59.111Z,14.94
2019-05-30T02:04:58.835Z,14.93
2019-05-30T02:05:58.900Z,14.92
2019-05-30T02:06:59.079Z,14.93
2019-05-30T02:07:58.948Z,14.94
2019-05-30T02:08:59.018Z,14.92
2019-05-30T02:09:59.065Z,14.92
2019-05-30T02:10:59.118Z,14.91
2019-05-30T02:11:59.224Z,14.91
2019-05-30T02:12:57.784Z,14.93
2019-05-30T02:13:57.773Z,14.93
2019-05-30T02:14:57.761Z,14.94
2019-05-30T02:15:57.750Z,14.95
2019-05-30T02:16:57.740Z,14.96
2019-05-30T02:17:57.739Z,14.96
2019-05-30T02:18:57.718Z,14.98
2019-05-30T02:19:57.707Z,14.99
2019-05-30T02:20:57.696Z,15.02
2019-05-30T02:21:57.686Z,15.03
2019-05-30T02:22:57.674Z,15.04
2019-05-30T02:23:57.674Z,15.04
2019-05-30T02:24:57.654Z,15.06
2019-05-30T02:25:57.641Z,15.06
2019-05-30T02:26:57.631Z,15.08
2019-05-30T02:27:57.619Z,15.07
2019-05-30T02:28:57.608Z,15.07
2019-05-30T02:29:57.610Z,15.09
2019-05-30T02:30:57.599Z,15.09
2019-05-30T02:31:57.578Z,15.09
2019-05-30T02:32:57.575Z,15.11
2019-05-30T02:33:57.556Z,15.13
2019-05-30T02:34:57.551Z,15.13
2019-05-30T02:35:57.548Z,15.16
2019-05-30T02:36:57.527Z,15.15
2019-05-30T02:37:57.511Z,15.17
2019-05-30T02:38:57.501Z,15.16
2019-05-30T02:40:02.455Z,15.19
2019-05-30T02:40:58.491Z,15.19
2019-05-30T02:41:57.469Z,15.20
2019-05-30T02:42:57.459Z,15.21
2019-05-30T02:43:57.447Z,15.22
2019-05-30T02:44:57.437Z,15.24
2019-05-30T02:45:57.432Z,15.24
2019-05-30T02:46:57.459Z,15.24
2019-05-30T02:47:57.405Z,15.26
2019-05-30T02:48:59.604Z,15.27
2019-05-30T02:49:57.385Z,15.27
2019-05-30T02:50:57.374Z,15.29
2019-05-30T02:51:57.362Z,15.29
2019-05-30T02:52:57.371Z,15.29
2019-05-30T02:53:57.341Z,15.30
2019-05-30T02:54:57.330Z,15.32
2019-05-30T02:55:57.321Z,15.32
2019-05-30T02:56:57.309Z,15.31
2019-05-30T02:57:57.298Z,15.30
2019-05-30T02:58:57.299Z,15.32
2019-05-30T02:59:57.275Z,15.32
2019-05-30T03:00:57.268Z,15.32
2019-05-30T03:02:01.685Z,15.32
2019-05-30T03:02:58.244Z,15.30
2019-05-30T03:03:57.237Z,15.31
2019-05-30T03:04:57.235Z,15.32
2019-05-30T03:05:57.213Z,15.30
2019-05-30T03:06:57.205Z,15.31
2019-05-30T03:07:57.193Z,15.30
2019-05-30T03:08:57.181Z,15.31
2019-05-30T03:09:57.170Z,15.31
2019-05-30T03:10:57.176Z,15.32
2019-05-30T03:11:57.153Z,15.34
2019-05-30T03:12:57.136Z,15.34
2019-05-30T03:13:57.129Z,15.35
2019-05-30T03:14:57.120Z,15.34
2019-05-30T03:15:57.105Z,15.35
2019-05-30T03:16:57.105Z,15.36
2019-05-30T03:17:57.086Z,15.36
2019-05-30T03:18:57.075Z,15.38
2019-05-30T03:19:57.062Z,15.37
2019-05-30T03:20:57.053Z,15.38
2019-05-30T03:21:57.040Z,15.39
2019-05-30T03:22:57.043Z,15.40
2019-05-30T03:23:57.036Z,15.41
2019-05-30T03:24:57.014Z,15.44
2019-05-30T03:25:57.005Z,15.45
2019-05-30T03:26:56.988Z,15.46
2019-05-30T03:27:56.979Z,15.48
2019-05-30T03:28:56.976Z,15.48
2019-05-30T03:29:56.956Z,15.50
2019-05-30T03:30:56.944Z,15.50
2019-05-30T03:31:56.934Z,15.50
2019-05-30T03:33:06.653Z,15.50
2019-05-30T03:33:57.924Z,15.53
2019-05-30T03:34:56.902Z,15.54
2019-05-30T03:35:56.894Z,15.54
2019-05-30T03:36:56.889Z,15.56
2019-05-30T03:37:56.869Z,15.55
2019-05-30T03:38:56.859Z,15.58
2019-05-30T03:39:56.868Z,15.59
2019-05-30T03:40:56.837Z,15.59
2019-05-30T03:41:56.825Z,15.62
2019-05-30T03:42:56.814Z,15.62
2019-05-30T03:43:56.805Z,15.64
2019-05-30T03:44:56.793Z,15.66
2019-05-30T03:45:56.796Z,15.67
2019-05-30T03:46:56.772Z,15.69
2019-05-30T03:47:56.761Z,15.71
2019-05-30T03:48:56.751Z,15.75
2019-05-30T03:49:56.742Z,15.77
2019-05-30T03:50:56.749Z,15.80
2019-05-30T03:51:56.730Z,15.81
2019-05-30T03:52:56.709Z,15.84
2019-05-30T03:53:56.705Z,15.86
2019-05-30T03:54:56.694Z,15.87
2019-05-30T03:55:56.675Z,15.88
2019-05-30T03:56:56.667Z,15.90
2019-05-30T03:57:56.669Z,15.91
2019-05-30T03:58:56.650Z,15.92
2019-05-30T03:59:56.633Z,15.93
2019-05-30T04:00:56.635Z,15.96
2019-05-30T04:01:56.613Z,15.96
2019-05-30T04:02:58.988Z,15.99
2019-05-30T04:03:56.599Z,16.00
2019-05-30T04:04:56.580Z,16.02
2019-05-30T04:05:56.568Z,16.02
2019-05-30T04:06:56.557Z,16.04
2019-05-30T04:07:56.547Z,16.05
2019-05-30T04:08:56.540Z,16.08
2019-05-30T04:09:56.535Z,16.10
2019-05-30T04:10:56.515Z,16.11
2019-05-30T04:11:56.501Z,16.12
2019-05-30T04:12:56.492Z,16.13
2019-05-30T04:13:56.482Z,16.15
2019-05-30T04:14:56.469Z,16.15
2019-05-30T04:15:56.484Z,16.17
2019-05-30T04:16:56.457Z,16.18
2019-05-30T04:17:56.437Z,16.18
2019-05-30T04:18:56.433Z,16.20
2019-05-30T04:19:56.414Z,16.20
2019-05-30T04:20:56.404Z,16.22
2019-05-30T04:21:56.403Z,16.22
2019-05-30T04:22:56.380Z,16.24
2019-05-30T04:23:56.370Z,16.25
2019-05-30T04:24:56.368Z,16.27
2019-05-30T04:26:00.333Z,16.26
2019-05-30T04:26:56.336Z,16.28
2019-05-30T04:27:56.336Z,16.30
2019-05-30T04:28:56.315Z,16.31
2019-05-30T04:29:56.304Z,16.31
2019-05-30T04:30:56.298Z,16.33
2019-05-30T04:31:56.283Z,16.33
2019-05-30T04:33:15.736Z,16.35
2019-05-30T04:33:57.270Z,16.35
2019-05-30T04:34:56.248Z,16.34
2019-05-30T04:35:56.239Z,16.36
2019-05-30T04:36:56.228Z,16.36
2019-05-30T04:37:56.218Z,16.36
2019-05-30T04:38:56.205Z,16.39
2019-05-30T04:39:56.211Z,16.40
2019-05-30T04:40:56.185Z,16.42
2019-05-30T04:41:56.175Z,16.43
2019-05-30T04:42:56.166Z,16.45
2019-05-30T04:43:56.154Z,16.49
2019-05-30T04:44:56.138Z,16.51
2019-05-30T04:45:56.142Z,16.53
2019-05-30T04:46:56.132Z,16.55
2019-05-30T04:47:56.106Z,16.57
2019-05-30T04:48:56.114Z,16.59
2019-05-30T04:49:56.095Z,16.61
2019-05-30T04:50:56.072Z,16.62
2019-05-30T04:51:56.073Z,16.63
2019-05-30T04:52:56.061Z,16.64
2019-05-30T04:53:56.042Z,16.64
2019-05-30T04:54:56.029Z,16.65
2019-05-30T04:55:56.017Z,16.66
2019-05-30T04:56:56.006Z,16.65
2019-05-30T04:57:56.012Z,16.66
2019-05-30T04:58:55.983Z,16.69
2019-05-30T04:59:55.977Z,16.70
2019-05-30T05:00:55.963Z,16.71
2019-05-30T05:01:55.949Z,16.76
2019-05-30T05:02:55.941Z,16.77
2019-05-30T05:03:55.939Z,16.81
2019-05-30T05:04:55.918Z,16.83
2019-05-30T05:05:55.906Z,16.86
2019-05-30T05:06:55.896Z,16.89
2019-05-30T05:07:55.885Z,16.90
2019-05-30T05:08:55.874Z,16.92
2019-05-30T05:09:55.874Z,16.93
2019-05-30T05:10:55.855Z,16.97
2019-05-30T05:11:55.841Z,16.98
2019-05-30T05:12:55.829Z,17.00
2019-05-30T05:13:55.819Z,17.02
2019-05-30T05:14:55.806Z,17.05
2019-05-30T05:15:55.809Z,17.08
2019-05-30T05:16:55.786Z,17.12
2019-05-30T05:17:55.778Z,17.13
2019-05-30T05:18:55.770Z,17.16
2019-05-30T05:19:55.754Z,17.18
2019-05-30T05:20:55.746Z,17.22
2019-05-30T05:21:55.752Z,17.26
2019-05-30T05:22:55.722Z,17.28
2019-05-30T05:23:55.710Z,17.32
2019-05-30T05:24:55.703Z,17.35
2019-05-30T05:26:01.054Z,17.39
2019-05-30T05:26:56.689Z,17.41
2019-05-30T05:27:55.669Z,17.43
2019-05-30T05:28:55.656Z,17.45
2019-05-30T05:29:55.646Z,17.49
2019-05-30T05:30:55.636Z,17.52
2019-05-30T05:31:55.626Z,17.56
2019-05-30T05:32:55.628Z,17.60
2019-05-30T05:33:57.084Z,17.65
2019-05-30T05:34:55.594Z,17.73
2019-05-30T05:35:55.582Z,17.80
2019-05-30T05:36:55.578Z,17.87
2019-05-30T05:37:55.564Z,17.94
2019-05-30T05:38:55.562Z,17.98
2019-05-30T05:39:55.540Z,18.01
2019-05-30T05:40:55.531Z,18.03
2019-05-30T05:41:55.522Z,18.04
2019-05-30T05:42:55.509Z,18.03
2019-05-30T05:43:55.497Z,18.04
2019-05-30T05:44:55.498Z,18.03
2019-05-30T05:45:55.502Z,18.04
2019-05-30T05:46:55.465Z,18.04
2019-05-30T05:47:55.456Z,18.00
2019-05-30T05:48:55.443Z,17.99
2019-05-30T05:49:55.606Z,17.98
2019-05-30T05:50:55.437Z,17.97
2019-05-30T05:51:55.410Z,17.96
2019-05-30T05:52:55.400Z,17.96
2019-05-30T05:53:55.389Z,17.94
2019-05-30T05:54:55.379Z,17.95
2019-05-30T05:55:55.368Z,17.96
2019-05-30T05:56:55.372Z,17.97
2019-05-30T05:57:55.344Z,18.00
2019-05-30T05:58:55.335Z,18.00
2019-05-30T05:59:55.323Z,18.02
2019-05-30T06:00:55.314Z,18.01
2019-05-30T06:01:55.314Z,18.01
2019-05-30T06:02:55.308Z,18.03
2019-05-30T06:03:55.280Z,18.01
2019-05-30T06:04:55.267Z,18.01
2019-05-30T06:05:55.258Z,18.01
2019-05-30T06:06:55.247Z,17.99
2019-05-30T06:07:55.243Z,17.98
2019-05-30T06:08:55.234Z,17.99
2019-05-30T06:09:55.213Z,17.99
2019-05-30T06:10:55.203Z,18.01
2019-05-30T06:11:55.192Z,18.04
2019-05-30T06:12:55.180Z,18.06
2019-05-30T06:13:55.169Z,18.11
2019-05-30T06:14:55.168Z,18.16
2019-05-30T06:15:55.147Z,18.20
2019-05-30T06:16:56.008Z,18.25
2019-05-30T06:17:55.125Z,18.29
2019-05-30T06:18:55.120Z,18.32
2019-05-30T06:19:55.103Z,18.37
2019-05-30T06:20:55.114Z,18.41
2019-05-30T06:21:55.087Z,18.46
2019-05-30T06:22:55.070Z,18.50
2019-05-30T06:23:55.063Z,18.53
2019-05-30T06:24:55.047Z,18.55
2019-05-30T06:25:55.036Z,18.58
2019-05-30T06:26:55.049Z,18.60
2019-05-30T06:27:55.017Z,18.62
2019-05-30T06:28:55.008Z,18.62
2019-05-30T06:29:54.998Z,18.63
2019-05-30T06:30:58.742Z,18.62
2019-05-30T06:31:54.971Z,18.64
2019-05-30T06:32:54.974Z,18.65
2019-05-30T06:33:54.955Z,18.68
2019-05-30T06:34:54.939Z,18.69
2019-05-30T06:35:54.928Z,18.71
2019-05-30T06:36:54.918Z,18.71
2019-05-30T06:37:54.906Z,18.72
2019-05-30T06:38:54.907Z,18.72
2019-05-30T06:39:54.886Z,18.72
2019-05-30T06:40:54.878Z,18.72
2019-05-30T06:41:54.864Z,18.72
2019-05-30T06:42:54.852Z,18.72
2019-05-30T06:43:54.843Z,18.72
2019-05-30T06:44:54.841Z,18.77
2019-05-30T06:45:54.820Z,18.78
2019-05-30T06:46:54.810Z,18.80
2019-05-30T06:47:54.798Z,18.81
2019-05-30T06:48:54.789Z,18.84
2019-05-30T06:49:54.777Z,18.84
2019-05-30T06:50:54.778Z,18.83
2019-05-30T06:51:54.755Z,18.84
2019-05-30T06:52:54.745Z,18.84
2019-05-30T06:53:54.738Z,18.86
2019-05-30T06:54:54.724Z,18.87
2019-05-30T06:55:54.712Z,18.90
2019-05-30T06:56:54.719Z,18.93
2019-05-30T06:57:54.689Z,18.95
2019-05-30T06:58:54.680Z,18.96
2019-05-30T06:59:54.674Z,18.99
2019-05-30T07:00:54.662Z,19.00
2019-05-30T07:01:54.649Z,19.04
2019-05-30T07:02:54.747Z,19.08
2019-05-30T07:03:54.713Z,19.13
2019-05-30T07:04:55.282Z,19.17
2019-05-30T07:05:55.119Z,19.24
2019-05-30T07:06:54.849Z,19.30
2019-05-30T07:07:54.583Z,19.37
2019-05-30T07:08:54.587Z,19.45
2019-05-30T07:09:54.575Z,19.52
2019-05-30T07:10:54.554Z,19.60
2019-05-30T07:11:54.561Z,19.65
2019-05-30T07:12:54.531Z,19.71
2019-05-30T07:13:54.519Z,19.77
2019-05-30T07:14:54.519Z,19.86
2019-05-30T07:15:54.497Z,19.94
2019-05-30T07:16:54.488Z,20.04
2019-05-30T07:17:54.479Z,20.17
2019-05-30T07:18:54.465Z,20.28
2019-05-30T07:19:54.455Z,20.35
2019-05-30T07:20:54.455Z,20.42
2019-05-30T07:21:54.433Z,20.43
2019-05-30T07:22:54.426Z,20.46
2019-05-30T07:23:54.417Z,20.45
2019-05-30T07:24:54.400Z,20.44
2019-05-30T07:25:54.393Z,20.42
2019-05-30T07:26:54.391Z,20.37
2019-05-30T07:27:54.369Z,20.32
2019-05-30T07:28:54.356Z,20.24
2019-05-30T07:29:54.345Z,20.15
2019-05-30T07:30:54.334Z,20.06
2019-05-30T07:31:54.323Z,20.01
2019-05-30T07:32:54.345Z,19.98
2019-05-30T07:33:54.302Z,19.96
2019-05-30T07:35:06.206Z,19.96
2019-05-30T07:35:55.278Z,19.97
2019-05-30T07:36:54.267Z,19.97
2019-05-30T07:37:54.256Z,19.96
2019-05-30T07:38:54.265Z,19.96
2019-05-30T07:39:54.235Z,19.94
2019-05-30T07:40:54.222Z,19.94
2019-05-30T07:42:05.799Z,19.97
2019-05-30T07:42:55.212Z,20.02
2019-05-30T07:43:54.191Z,20.08
2019-05-30T07:44:54.194Z,20.14
2019-05-30T07:45:58.200Z,20.22
2019-05-30T07:46:54.160Z,20.37
2019-05-30T07:47:54.145Z,20.58
2019-05-30T07:48:54.134Z,20.77
2019-05-30T07:49:54.127Z,20.94
2019-05-30T07:50:54.125Z,21.10
2019-05-30T07:51:54.101Z,21.22
2019-05-30T07:52:54.094Z,21.32
2019-05-30T07:53:54.079Z,21.42
2019-05-30T07:54:54.103Z,21.47
2019-05-30T07:55:54.057Z,21.48
2019-05-30T07:56:54.058Z,21.45
2019-05-30T07:57:54.035Z,21.42
2019-05-30T07:58:54.023Z,21.38
2019-05-30T07:59:54.013Z,21.30
2019-05-30T08:00:54.005Z,21.23
2019-05-30T08:01:54.014Z,21.25
2019-05-30T08:02:53.991Z,21.24
2019-05-30T08:03:53.970Z,21.22
2019-05-30T08:04:53.959Z,21.21
2019-05-30T08:05:53.947Z,21.19
2019-05-30T08:06:53.937Z,21.16
2019-05-30T08:07:53.931Z,21.14
2019-05-30T08:08:53.928Z,21.12
2019-05-30T08:09:53.904Z,21.13
2019-05-30T08:11:08.369Z,21.14
2019-05-30T08:11:54.880Z,21.16
2019-05-30T08:12:53.871Z,21.17
2019-05-30T08:13:53.861Z,21.19
2019-05-30T08:14:53.869Z,21.21
2019-05-30T08:15:53.848Z,21.28
2019-05-30T08:16:53.828Z,21.35
2019-05-30T08:17:53.816Z,21.44
2019-05-30T08:18:53.806Z,21.50
2019-05-30T08:19:53.795Z,21.52
2019-05-30T08:20:53.807Z,21.53
2019-05-30T08:21:53.789Z,21.59
2019-05-30T08:22:53.762Z,21.61
2019-05-30T08:23:53.754Z,21.61
2019-05-30T08:24:53.741Z,21.61
2019-05-30T08:25:53.729Z,21.57
2019-05-30T08:26:53.730Z,21.54
2019-05-30T08:27:53.707Z,21.54
2019-05-30T08:28:53.696Z,21.57
2019-05-30T08:29:53.689Z,21.64
2019-05-30T08:30:56.834Z,21.67
2019-05-30T08:31:53.663Z,21.67
2019-05-30T08:32:53.665Z,21.65
2019-05-30T08:33:53.645Z,21.59
2019-05-30T08:34:53.634Z,21.52
2019-05-30T08:35:53.621Z,21.46
2019-05-30T08:36:53.614Z,21.40
2019-05-30T08:37:53.599Z,21.38
2019-05-30T08:38:53.600Z,21.38
2019-05-30T08:39:53.577Z,21.34
2019-05-30T08:40:53.568Z,21.33
2019-05-30T08:41:53.555Z,21.31
2019-05-30T08:42:53.641Z,21.30
2019-05-30T08:43:53.534Z,21.30
2019-05-30T08:44:53.539Z,21.28
2019-05-30T08:45:53.520Z,21.24
2019-05-30T08:46:53.503Z,21.23
2019-05-30T08:47:53.491Z,21.25
2019-05-30T08:48:53.480Z,21.28
2019-05-30T08:49:53.469Z,21.31
2019-05-30T08:50:53.471Z,21.30
2019-05-30T08:51:53.485Z,21.31
2019-05-30T08:52:53.439Z,21.34
2019-05-30T08:53:53.426Z,21.38
2019-05-30T08:54:53.414Z,21.37
2019-05-30T08:55:53.404Z,21.36
2019-05-30T08:56:53.403Z,21.33
2019-05-30T08:57:53.386Z,21.33
2019-05-30T08:58:53.370Z,21.33
2019-05-30T08:59:53.359Z,21.39
2019-05-30T09:00:53.350Z,21.41
2019-05-30T09:01:53.417Z,21.39
2019-05-30T09:02:53.336Z,21.43
2019-05-30T09:03:53.316Z,21.43
2019-05-30T09:04:53.305Z,21.40
2019-05-30T09:06:02.545Z,21.31
2019-05-30T09:06:54.283Z,21.24
2019-05-30T09:07:53.276Z,21.18
2019-05-30T09:08:53.272Z,21.14
2019-05-30T09:09:53.252Z,21.08
2019-05-30T09:10:53.240Z,21.04
2019-05-30T09:11:53.228Z,20.96
2019-05-30T09:12:53.234Z,20.91
2019-05-30T09:13:53.207Z,20.89
2019-05-30T09:14:53.208Z,20.91
2019-05-30T09:15:53.184Z,20.91
2019-05-30T09:16:53.174Z,20.87
2019-05-30T09:17:53.164Z,20.80
2019-05-30T09:18:53.157Z,20.78
2019-05-30T09:19:53.141Z,20.80
2019-05-30T09:20:53.142Z,20.82
2019-05-30T09:21:53.118Z,20.86
2019-05-30T09:22:53.115Z,20.90
2019-05-30T09:23:57.548Z,20.92
2019-05-30T09:24:54.086Z,20.92
2019-05-30T09:25:53.075Z,20.87
2019-05-30T09:26:53.082Z,20.84
2019-05-30T09:27:53.056Z,20.80
2019-05-30T09:28:53.075Z,20.77
2019-05-30T09:29:53.036Z,20.76
2019-05-30T09:30:53.022Z,20.76
2019-05-30T09:31:53.009Z,20.73
2019-05-30T09:32:53.009Z,20.68
2019-05-30T09:33:52.988Z,20.61
2019-05-30T09:34:52.978Z,20.55
2019-05-30T09:35:52.965Z,20.49
2019-05-30T09:36:52.956Z,20.44
2019-05-30T09:37:52.944Z,20.39
2019-05-30T09:38:52.945Z,20.34
2019-05-30T09:39:52.924Z,20.30
2019-05-30T09:40:52.911Z,20.29
2019-05-30T09:41:52.903Z,20.26
2019-05-30T09:42:52.889Z,20.24
2019-05-30T09:43:52.883Z,20.21
2019-05-30T09:44:52.876Z,20.20
2019-05-30T09:45:52.856Z,20.18
2019-05-30T09:46:52.884Z,20.18
2019-05-30T09:47:52.833Z,20.17
2019-05-30T09:48:52.826Z,20.13
2019-05-30T09:49:52.812Z,20.13
2019-05-30T09:50:52.811Z,20.10
2019-05-30T09:51:52.790Z,20.07
2019-05-30T09:52:52.778Z,20.07
2019-05-30T09:53:52.930Z,20.10
2019-05-30T09:54:52.778Z,20.10
2019-05-30T09:55:53.120Z,20.12
2019-05-30T09:56:53.202Z,20.13
2019-05-30T09:57:52.724Z,20.18
2019-05-30T09:58:52.717Z,20.22
2019-05-30T09:59:52.702Z,20.25
2019-05-30T10:00:52.698Z,20.31
2019-05-30T10:01:52.680Z,20.39
2019-05-30T10:02:52.745Z,20.45
2019-05-30T10:03:52.658Z,20.49
2019-05-30T10:04:52.663Z,20.51
2019-05-30T10:05:52.754Z,20.55
2019-05-30T10:06:52.637Z,20.60
2019-05-30T10:07:53.035Z,20.67
2019-05-30T10:08:53.096Z,20.71
2019-05-30T10:09:53.130Z,20.78
2019-05-30T10:10:53.530Z,20.86
2019-05-30T10:11:53.481Z,20.91
2019-05-30T10:12:52.805Z,20.98
2019-05-30T10:13:52.936Z,21.06
2019-05-30T10:14:52.920Z,21.14
2019-05-30T10:15:52.684Z,21.25
2019-05-30T10:16:55.937Z,21.34
2019-05-30T10:17:54.414Z,21.39
2019-05-30T10:18:52.908Z,21.43
2019-05-30T10:19:52.999Z,21.50
2019-05-30T10:20:53.642Z,21.56
2019-05-30T10:21:53.255Z,21.63
2019-05-30T10:22:53.819Z,21.68
2019-05-30T10:23:53.601Z,21.73
2019-05-30T10:24:53.356Z,21.83
2019-05-30T10:25:53.364Z,21.93
2019-05-30T10:26:53.204Z,22.05
2019-05-30T10:27:54.417Z,22.13
2019-05-30T10:28:53.337Z,22.14
2019-05-30T10:29:53.347Z,22.13
2019-05-30T10:30:57.310Z,22.10
2019-05-30T10:31:53.366Z,22.08
2019-05-30T10:32:53.649Z,22.09
2019-05-30T10:33:53.031Z,22.16
2019-05-30T10:34:52.818Z,22.22
2019-05-30T10:35:53.399Z,22.24
2019-05-30T10:36:52.297Z,22.27
2019-05-30T10:37:52.829Z,22.24
2019-05-30T10:38:52.353Z,22.21
2019-05-30T10:39:57.223Z,22.20
2019-05-30T10:40:54.062Z,22.18
2019-05-30T10:41:53.119Z,22.12
2019-05-30T10:42:53.303Z,22.05
2019-05-30T10:43:53.154Z,22.01
2019-05-30T10:44:52.902Z,21.97
2019-05-30T10:45:53.404Z,21.93
2019-05-30T10:46:52.869Z,21.85
2019-05-30T10:47:53.496Z,21.77
2019-05-30T10:48:52.784Z,21.67
2019-05-30T10:49:53.487Z,21.57
2019-05-30T10:50:52.328Z,21.51
2019-05-30T10:51:55.769Z,21.50
2019-05-30T10:52:53.607Z,21.52
2019-05-30T10:53:52.711Z,21.53
2019-05-30T10:54:52.100Z,21.55
2019-05-30T10:55:53.586Z,21.62
2019-05-30T10:56:52.079Z,21.66
2019-05-30T10:57:53.992Z,21.70
2019-05-30T10:58:53.056Z,21.74
2019-05-30T10:59:52.564Z,21.75
2019-05-30T11:00:53.607Z,21.72
2019-05-30T11:01:52.995Z,21.65
2019-05-30T11:02:52.881Z,21.58
2019-05-30T11:03:52.647Z,21.51
2019-05-30T11:04:53.082Z,21.45
2019-05-30T11:05:52.861Z,21.40
2019-05-30T11:07:09.897Z,21.34
2019-05-30T11:08:01.250Z,21.28
2019-05-30T11:08:52.946Z,21.26
2019-05-30T11:09:52.832Z,21.22
2019-05-30T11:10:52.740Z,21.21
2019-05-30T11:11:52.854Z,21.18
2019-05-30T11:12:58.432Z,21.17
2019-05-30T11:13:53.254Z,21.15
2019-05-30T11:14:53.661Z,21.14
2019-05-30T11:15:53.418Z,21.11
2019-05-30T11:16:51.863Z,21.10
2019-05-30T11:17:53.344Z,21.08
2019-05-30T11:18:53.164Z,21.06
2019-05-30T11:19:52.067Z,21.07
2019-05-30T11:20:52.333Z,21.07
2019-05-30T11:21:52.803Z,21.08
2019-05-30T11:22:53.020Z,21.11
2019-05-30T11:23:52.606Z,21.11
2019-05-30T11:24:52.750Z,21.16
2019-05-30T11:25:52.550Z,21.20
2019-05-30T11:26:52.589Z,21.22
2019-05-30T11:27:52.672Z,21.26
2019-05-30T11:28:52.604Z,21.35
2019-05-30T11:29:52.882Z,21.44
2019-05-30T11:30:52.755Z,21.54
2019-05-30T11:31:52.679Z,21.69
2019-05-30T11:32:52.968Z,21.86
2019-05-30T11:33:52.823Z,21.98
2019-05-30T11:34:52.935Z,22.03
2019-05-30T11:35:52.990Z,22.05
2019-05-30T11:36:51.645Z,22.07
2019-05-30T11:37:51.646Z,22.09
2019-05-30T11:38:52.400Z,22.16
2019-05-30T11:39:51.611Z,22.27
2019-05-30T11:40:51.602Z,22.32
2019-05-30T11:41:51.589Z,22.30
2019-05-30T11:42:51.579Z,22.27
2019-05-30T11:43:51.580Z,22.20
2019-05-30T11:44:51.557Z,22.17
2019-05-30T11:45:51.765Z,22.13
2019-05-30T11:46:51.574Z,22.06
2019-05-30T11:47:51.535Z,22.02
2019-05-30T11:48:51.678Z,21.94
2019-05-30T11:49:51.666Z,21.90
2019-05-30T11:50:52.032Z,21.88
2019-05-30T11:51:51.739Z,21.87
2019-05-30T11:52:51.771Z,21.86
2019-05-30T11:53:51.797Z,21.83
2019-05-30T11:54:52.031Z,21.83
2019-05-30T11:55:52.298Z,21.77
2019-05-30T11:56:52.034Z,21.72
2019-05-30T11:57:52.057Z,21.68
2019-05-30T11:58:52.031Z,21.66
2019-05-30T11:59:52.125Z,21.65
2019-05-30T12:00:53.059Z,21.62
2019-05-30T12:01:52.946Z,21.57
2019-05-30T12:02:52.207Z,21.56
2019-05-30T12:03:52.503Z,21.56
2019-05-30T12:04:52.547Z,21.56
2019-05-30T12:05:52.393Z,21.56
2019-05-30T12:06:51.861Z,21.57
2019-05-30T12:07:52.673Z,21.61
2019-05-30T12:08:51.297Z,21.71
2019-05-30T12:09:51.287Z,21.78
2019-05-30T12:10:51.279Z,21.80
2019-05-30T12:11:51.266Z,21.81
2019-05-30T12:12:51.300Z,21.83
2019-05-30T12:13:51.724Z,21.82
2019-05-30T12:14:51.302Z,21.86
2019-05-30T12:15:51.415Z,21.94
2019-05-30T12:16:51.214Z,22.00
2019-05-30T12:17:51.279Z,22.02
2019-05-30T12:18:51.377Z,22.09
2019-05-30T12:19:51.412Z,22.18
2019-05-30T12:20:51.705Z,22.28
2019-05-30T12:21:51.527Z,22.35
2019-05-30T12:22:51.779Z,22.42
2019-05-30T12:23:51.912Z,22.48
2019-05-30T12:24:51.750Z,22.51
2019-05-30T12:25:51.964Z,22.55
2019-05-30T12:26:51.866Z,22.58
2019-05-30T12:27:52.008Z,22.59
2019-05-30T12:28:52.058Z,22.55
2019-05-30T12:29:52.043Z,22.54
2019-05-30T12:30:56.661Z,22.57
2019-05-30T12:31:55.196Z,22.57
2019-05-30T12:32:52.286Z,22.57
2019-05-30T12:33:52.246Z,22.60
2019-05-30T12:34:52.257Z,22.64
2019-05-30T12:35:52.306Z,22.74
2019-05-30T12:36:52.260Z,22.84
2019-05-30T12:37:57.179Z,22.98
2019-05-30T12:38:52.238Z,23.19
2019-05-30T12:39:50.965Z,23.47
2019-05-30T12:40:50.953Z,23.67
2019-05-30T12:41:50.942Z,23.75
2019-05-30T12:42:55.422Z,23.76
2019-05-30T12:43:52.987Z,23.72
2019-05-30T12:44:50.915Z,23.70
2019-05-30T12:45:50.903Z,23.61
2019-05-30T12:46:50.903Z,23.51
2019-05-30T12:47:50.879Z,23.42
2019-05-30T12:48:50.889Z,23.32
2019-05-30T12:49:50.868Z,23.23
2019-05-30T12:50:50.843Z,23.14
2019-05-30T12:51:50.832Z,23.08